Time;durP1;ratioP1;P1;durP2;ratioP2;P2;SDS_P1;SDS_P2;PMS_P1;PMS_P2;Temp;Humidity;BMP_temperature;BMP_pressure;BME280_temperature;BME280_humidity;BME280_pressure;Samples;Min_cycle;Max_cycle;Signal;HPM_P1;HPM_P2
2021/05/17 00:01:53;;;;;;;2.23;1.20;;;11.70;99.90;;;;;;5024454;28;20454;-72
2021/05/17 00:04:31;;;;;;;1.27;0.87;;;11.60;99.90;;;;;;5024061;28;20473;-74
2021/05/17 00:06:57;;;;;;;2.13;0.90;;;11.60;99.90;;;;;;5042228;28;21445;-72
2021/05/17 00:09:23;;;;;;;0.60;0.50;;;11.60;99.90;;;;;;5039582;28;20466;-71
2021/05/17 00:11:50;;;;;;;2.40;0.50;;;11.50;99.90;;;;;;5027025;28;20453;-71
2021/05/17 00:14:17;;;;;;;1.93;0.70;;;11.50;99.90;;;;;;5043503;28;20528;-74
2021/05/17 00:16:43;;;;;;;0.73;0.60;;;11.50;99.90;;;;;;5012006;28;20508;-71
2021/05/17 00:19:09;;;;;;;0.60;0.50;;;11.50;99.90;;;;;;5026787;28;20540;-73
2021/05/17 00:21:36;;;;;;;0.60;0.60;;;11.40;99.90;;;;;;5026132;28;20453;-70
2021/05/17 00:24:03;;;;;;;0.70;0.70;;;11.30;99.90;;;;;;5043404;28;21015;-72
2021/05/17 00:26:28;;;;;;;1.10;0.70;;;11.30;99.90;;;;;;5043813;28;20473;-71
2021/05/17 00:28:54;;;;;;;0.53;0.53;;;11.30;99.90;;;;;;5043740;28;20463;-71
2021/05/17 00:31:20;;;;;;;0.87;0.60;;;11.30;99.90;;;;;;5031512;28;21109;-71
2021/05/17 00:33:47;;;;;;;0.90;0.80;;;11.30;99.90;;;;;;4991076;28;20552;-71
2021/05/17 00:36:13;;;;;;;0.80;0.77;;;11.30;99.90;;;;;;5015031;28;20454;-73
2021/05/17 00:38:39;;;;;;;0.40;0.40;;;11.20;99.90;;;;;;5023644;28;22085;-71
2021/05/17 00:41:04;;;;;;;1.80;0.60;;;11.20;99.90;;;;;;5036599;28;20462;-71
2021/05/17 00:43:36;;;;;;;0.57;0.50;;;11.30;99.90;;;;;;5017058;28;20276;-73
2021/05/17 00:46:06;;;;;;;1.53;0.57;;;11.30;99.90;;;;;;5029728;28;20230;-73
2021/05/17 00:48:34;;;;;;;0.60;0.60;;;11.30;99.90;;;;;;5037088;28;20453;-72
2021/05/17 00:51:07;;;;;;;0.60;0.60;;;11.30;99.90;;;;;;5018321;28;20494;-74
2021/05/17 00:53:35;;;;;;;1.30;0.70;;;11.20;99.90;;;;;;5017895;28;20478;-71
2021/05/17 00:56:02;;;;;;;3.47;0.60;;;11.10;99.90;;;;;;5015479;28;20464;-74
2021/05/17 00:58:29;;;;;;;0.57;0.50;;;11.10;99.90;;;;;;5019525;28;20449;-74
2021/05/17 01:00:55;;;;;;;0.40;0.30;;;11.10;99.90;;;;;;5031784;28;20468;-71
2021/05/17 01:03:21;;;;;;;0.80;0.67;;;11.10;99.90;;;;;;5026405;28;20464;-71
2021/05/17 01:05:55;;;;;;;0.67;0.60;;;11.10;99.90;;;;;;5044365;28;20548;-71
2021/05/17 01:08:25;;;;;;;0.60;0.47;;;11.10;99.90;;;;;;5026786;28;20454;-72
2021/05/17 01:10:56;;;;;;;0.53;0.53;;;11.10;99.90;;;;;;5043665;28;20469;-71
2021/05/17 01:13:24;;;;;;;2.63;0.90;;;11.10;99.90;;;;;;5008367;28;20476;-71
2021/05/17 01:15:51;;;;;;;0.40;0.40;;;11.20;99.90;;;;;;4998426;28;20508;-71
2021/05/17 01:18:17;;;;;;;1.30;0.70;;;11.20;99.90;;;;;;5025487;28;20457;-74
2021/05/17 01:20:47;;;;;;;0.60;0.50;;;11.20;99.90;;;;;;5025686;28;20454;-74
2021/05/17 01:25:54;;;;;;;0.50;0.40;;;11.20;99.90;;;;;;5046756;28;20533;-74
2021/05/17 01:28:23;;;;;;;1.00;0.73;;;11.20;99.90;;;;;;5059813;28;20462;-73
2021/05/17 01:30:53;;;;;;;0.63;0.63;;;11.20;99.90;;;;;;5025060;28;20453;-73
2021/05/17 01:33:19;;;;;;;0.80;0.80;;;11.10;99.90;;;;;;5025970;28;20499;-70
2021/05/17 01:35:50;;;;;;;0.80;0.80;;;11.10;99.90;;;;;;5020872;28;21024;-74
2021/05/17 01:38:19;;;;;;;1.03;0.83;;;11.10;99.90;;;;;;5026192;28;20465;-72
2021/05/17 01:40:46;;;;;;;0.70;0.60;;;11.10;99.90;;;;;;5041270;28;20492;-72
2021/05/17 01:43:15;;;;;;;0.60;0.60;;;11.00;99.90;;;;;;5075918;28;21102;-71
2021/05/17 01:45:43;;;;;;;0.70;0.60;;;11.00;99.90;;;;;;5010780;28;20532;-71
2021/05/17 01:48:10;;;;;;;0.47;0.47;;;11.00;99.90;;;;;;5042136;28;20602;-71
2021/05/17 01:50:37;;;;;;;0.77;0.60;;;11.00;99.90;;;;;;5024916;28;20466;-72
2021/05/17 01:53:04;;;;;;;0.93;0.93;;;10.90;99.90;;;;;;5059536;28;20465;-72
2021/05/17 01:55:31;;;;;;;0.93;0.60;;;11.00;99.90;;;;;;5026249;28;20461;-73
2021/05/17 01:58:10;;;;;;;0.90;0.60;;;11.00;99.90;;;;;;5009243;28;20454;-74
2021/05/17 02:00:41;;;;;;;0.57;0.57;;;11.00;99.90;;;;;;5032176;28;20456;-74
2021/05/17 02:03:08;;;;;;;0.87;0.77;;;11.00;99.90;;;;;;5058874;28;20536;-72
2021/05/17 02:05:35;;;;;;;0.70;0.70;;;11.00;99.90;;;;;;5042665;28;20462;-71
2021/05/17 02:08:03;;;;;;;0.60;0.53;;;11.00;99.90;;;;;;5041935;28;20460;-73
2021/05/17 02:10:30;;;;;;;0.70;0.60;;;11.00;99.90;;;;;;5025145;28;20457;-73
2021/05/17 02:12:57;;;;;;;0.80;0.80;;;11.00;99.90;;;;;;5025922;28;20454;-71
2021/05/17 02:15:25;;;;;;;0.87;0.87;;;11.00;99.90;;;;;;5020936;28;20445;-74
2021/05/17 02:18:08;;;;;;;1.10;1.00;;;11.00;99.90;;;;;;5042225;28;20450;-71
2021/05/17 02:20:37;;;;;;;0.80;0.80;;;11.10;99.90;;;;;;5041149;28;21032;-71
2021/05/17 02:23:04;;;;;;;0.90;0.90;;;11.10;99.90;;;;;;5023148;28;20453;-71
2021/05/17 02:25:31;;;;;;;0.70;0.63;;;11.10;99.90;;;;;;5075594;28;20548;-72
2021/05/17 02:28:00;;;;;;;0.80;0.80;;;11.10;99.90;;;;;;5007975;28;20445;-76
2021/05/17 02:30:26;;;;;;;0.93;0.90;;;11.10;99.90;;;;;;5021952;28;20852;-74
2021/05/17 02:32:54;;;;;;;0.87;0.83;;;11.10;99.90;;;;;;5040636;28;20450;-75
2021/05/17 02:35:35;;;;;;;0.90;0.90;;;11.20;99.90;;;;;;5027423;28;20465;-72
2021/05/17 02:38:02;;;;;;;0.90;0.90;;;11.20;99.90;;;;;;5042070;28;20452;-75
2021/05/17 02:40:31;;;;;;;0.80;0.80;;;11.20;99.90;;;;;;5033282;28;20464;-74
2021/05/17 02:43:04;;;;;;;1.20;1.00;;;11.30;99.90;;;;;;5060043;28;20448;-70
2021/05/17 02:45:41;;;;;;;2.20;1.03;;;11.30;99.90;;;;;;5041077;28;20481;-71
2021/05/17 02:48:09;;;;;;;0.90;0.90;;;11.40;99.90;;;;;;5023668;28;20454;-71
2021/05/17 02:50:36;;;;;;;1.10;0.90;;;11.40;99.90;;;;;;5008047;28;20540;-73
2021/05/17 02:53:27;;;;;;;3.03;1.00;;;11.40;99.90;;;;;;5056986;28;20481;-72
2021/05/17 02:55:55;;;;;;;1.30;1.20;;;11.40;99.90;;;;;;5025516;28;20472;-71
2021/05/17 02:58:23;;;;;;;1.20;1.10;;;11.40;99.90;;;;;;5024448;28;20438;-73
2021/05/17 03:01:00;;;;;;;0.77;0.73;;;11.40;99.90;;;;;;5024006;28;20488;-71
2021/05/17 03:03:27;;;;;;;1.03;0.90;;;11.40;99.90;;;;;;5040324;28;20461;-71
2021/05/17 03:06:06;;;;;;;0.90;0.90;;;11.30;99.90;;;;;;5040941;28;20812;-71
2021/05/17 03:08:43;;;;;;;1.33;1.23;;;11.30;99.90;;;;;;5025395;28;20446;-70
2021/05/17 03:11:14;;;;;;;0.87;0.87;;;11.40;99.90;;;;;;5039779;28;20491;-71
2021/05/17 03:13:42;;;;;;;2.07;1.10;;;11.40;99.90;;;;;;5041753;28;20468;-72
2021/05/17 03:16:09;;;;;;;1.20;1.10;;;11.30;99.90;;;;;;5040661;28;20445;-71
2021/05/17 03:18:36;;;;;;;1.47;1.20;;;11.30;99.90;;;;;;5024970;28;20516;-73
2021/05/17 03:21:02;;;;;;;0.90;0.90;;;11.40;99.90;;;;;;5022803;28;20460;-73
2021/05/17 03:23:29;;;;;;;1.20;1.13;;;11.40;99.90;;;;;;5023883;28;20488;-73
2021/05/17 03:25:55;;;;;;;1.47;0.90;;;11.40;99.90;;;;;;5023902;28;20474;-71
2021/05/17 03:28:20;;;;;;;0.90;0.90;;;11.40;99.90;;;;;;5021234;28;20770;-74
2021/05/17 03:30:46;;;;;;;3.70;1.17;;;11.40;99.90;;;;;;5057415;28;20226;-71
2021/05/17 03:33:12;;;;;;;1.50;1.33;;;11.30;99.90;;;;;;5024023;28;20558;-73
2021/05/17 03:35:37;;;;;;;1.47;1.10;;;11.30;99.90;;;;;;5008040;28;20214;-72
2021/05/17 03:38:03;;;;;;;1.13;1.03;;;11.20;99.90;;;;;;5023466;28;20219;-74
2021/05/17 03:40:29;;;;;;;2.10;1.00;;;11.20;99.90;;;;;;5027096;28;20247;-72
2021/05/17 03:42:59;;;;;;;1.77;1.07;;;11.20;99.90;;;;;;5022482;28;20758;-71
2021/05/17 03:45:24;;;;;;;1.17;1.07;;;11.20;99.90;;;;;;5023604;28;20221;-72
2021/05/17 03:47:50;;;;;;;2.80;1.70;;;11.10;99.90;;;;;;5041125;28;20457;-73
2021/05/17 03:50:16;;;;;;;1.13;1.03;;;11.20;99.90;;;;;;5023193;28;20212;-73
2021/05/17 03:52:41;;;;;;;1.40;1.30;;;11.20;99.90;;;;;;5030845;28;20609;-71
2021/05/17 03:55:08;;;;;;;1.40;1.30;;;11.20;99.90;;;;;;5039486;28;20827;-73
2021/05/17 03:57:35;;;;;;;1.27;1.17;;;11.20;99.90;;;;;;5013071;28;20225;-73
2021/05/17 04:00:10;;;;;;;1.57;1.33;;;11.20;99.90;;;;;;5056942;28;20521;-73
2021/05/17 04:02:44;;;;;;;1.30;1.20;;;11.20;99.90;;;;;;5041700;28;20453;-73
2021/05/17 04:13:26;;;;;;;1.57;1.47;;;11.20;99.90;;;;;;5024972;28;20533;-70
2021/05/17 04:15:54;;;;;;;1.20;1.20;;;11.20;99.90;;;;;;5022797;28;20865;-74
2021/05/17 04:18:20;;;;;;;1.20;1.10;;;11.20;99.90;;;;;;5020989;28;20442;-71
2021/05/17 04:20:48;;;;;;;1.10;1.03;;;11.20;99.90;;;;;;5057225;28;20450;-72
2021/05/17 04:23:25;;;;;;;1.40;1.30;;;11.20;99.90;;;;;;5035592;28;20480;-71
2021/05/17 04:25:52;;;;;;;1.97;1.20;;;11.20;99.90;;;;;;5023343;28;20457;-73
2021/05/17 04:28:18;;;;;;;2.70;1.67;;;11.30;99.90;;;;;;5021086;28;20464;-72
2021/05/17 04:30:45;;;;;;;2.10;1.47;;;11.20;99.90;;;;;;5019930;28;20473;-73
2021/05/17 04:33:11;;;;;;;1.07;1.07;;;11.30;99.90;;;;;;5020935;28;20497;-73
2021/05/17 04:35:37;;;;;;;1.20;1.10;;;11.30;99.90;;;;;;5021740;28;21203;-71
2021/05/17 04:38:02;;;;;;;1.40;1.20;;;11.20;99.90;;;;;;5057959;28;20472;-71
2021/05/17 04:40:29;;;;;;;4.30;1.10;;;11.30;99.90;;;;;;5021095;28;20223;-72
2021/05/17 04:42:55;;;;;;;1.10;1.00;;;11.30;99.90;;;;;;5037704;28;20226;-71
2021/05/17 04:45:23;;;;;;;1.10;1.10;;;11.20;99.90;;;;;;5027460;28;20446;-74
2021/05/17 04:47:50;;;;;;;1.30;1.10;;;11.30;99.90;;;;;;5012058;28;20304;-74
2021/05/17 04:50:15;;;;;;;1.07;1.03;;;11.30;99.90;;;;;;5016932;28;21217;-72
2021/05/17 04:52:41;;;;;;;3.47;1.30;;;11.30;99.90;;;;;;5019713;28;20581;-73
2021/05/17 04:55:07;;;;;;;7.30;5.70;;;11.30;99.90;;;;;;5003556;28;20223;-73
2021/05/17 04:57:33;;;;;;;1.50;1.40;;;11.30;99.90;;;;;;5010968;28;20721;-74
2021/05/17 04:59:59;;;;;;;4.10;1.30;;;11.30;99.90;;;;;;5040677;28;20466;-73
2021/05/17 05:02:25;;;;;;;1.10;1.00;;;11.30;99.90;;;;;;5054836;28;20218;-73
2021/05/17 05:04:51;;;;;;;1.30;1.20;;;11.30;99.90;;;;;;5043906;28;20239;-72
2021/05/17 05:07:19;;;;;;;1.20;1.10;;;11.30;99.90;;;;;;5060591;28;20231;-73
2021/05/17 05:09:44;;;;;;;1.63;1.10;;;11.30;99.90;;;;;;5026793;28;20489;-72
2021/05/17 05:12:10;;;;;;;1.67;1.57;;;11.40;99.90;;;;;;5010202;28;20492;-73
2021/05/17 05:14:36;;;;;;;1.30;1.00;;;11.40;99.90;;;;;;5044087;28;20215;-74
2021/05/17 05:17:02;;;;;;;1.03;1.00;;;11.40;99.90;;;;;;5010055;28;20519;-73
2021/05/17 05:19:28;;;;;;;1.47;0.90;;;11.30;99.90;;;;;;5041741;28;20314;-74
2021/05/17 05:21:53;;;;;;;1.50;1.40;;;11.30;99.90;;;;;;5025940;28;20242;-73
2021/05/17 05:24:19;;;;;;;0.90;0.90;;;11.30;99.90;;;;;;5025900;28;20231;-73
2021/05/17 05:34:45;;;;;;;0.97;0.97;;;11.30;99.90;;;;;;5053169;28;20461;-71
2021/05/17 05:37:10;;;;;;;0.80;0.73;;;11.30;99.90;;;;;;5009260;28;20541;-72
2021/05/17 05:39:36;;;;;;;1.30;1.20;;;11.30;99.90;;;;;;5034418;28;20220;-72
2021/05/17 05:42:02;;;;;;;1.17;1.10;;;11.30;99.90;;;;;;5034247;28;20707;-71
2021/05/17 05:44:28;;;;;;;3.30;1.60;;;11.40;99.90;;;;;;5054227;28;20226;-72
2021/05/17 05:46:53;;;;;;;2.47;1.70;;;11.40;99.90;;;;;;5005179;28;20454;-72
2021/05/17 05:49:20;;;;;;;1.67;1.57;;;11.40;99.90;;;;;;5053768;28;20254;-73
2021/05/17 05:51:46;;;;;;;1.53;1.43;;;11.40;99.90;;;;;;5020276;28;20211;-73
2021/05/17 05:54:12;;;;;;;2.77;1.93;;;11.40;99.90;;;;;;5033915;28;20507;-73
2021/05/17 05:56:37;;;;;;;1.57;1.47;;;11.40;99.90;;;;;;5050956;28;20223;-72
2021/05/17 05:59:03;;;;;;;1.50;1.40;;;11.50;99.90;;;;;;5050346;28;20215;-72
2021/05/17 06:01:29;;;;;;;1.63;1.33;;;11.50;99.90;;;;;;5066503;28;20698;-72
2021/05/17 06:03:55;;;;;;;1.63;1.43;;;11.60;99.90;;;;;;5070971;28;20223;-72
2021/05/17 06:06:20;;;;;;;1.60;1.50;;;11.50;99.90;;;;;;5046996;28;20221;-73
2021/05/17 06:08:46;;;;;;;1.23;1.07;;;11.60;99.90;;;;;;5023203;28;20833;-74
2021/05/17 06:11:13;;;;;;;3.07;1.20;;;11.60;99.90;;;;;;5016983;28;20307;-72
2021/05/17 06:13:40;;;;;;;1.50;1.40;;;11.60;99.90;;;;;;5020773;28;20226;-74
2021/05/17 06:16:08;;;;;;;1.60;1.20;;;11.70;99.90;;;;;;5037206;28;20476;-73
2021/05/17 06:18:33;;;;;;;3.70;1.43;;;11.70;99.90;;;;;;5053920;28;20794;-72
2021/05/17 06:21:00;;;;;;;1.70;1.30;;;11.70;99.90;;;;;;5053692;28;20548;-72
2021/05/17 06:23:27;;;;;;;1.57;1.47;;;11.80;99.90;;;;;;5018703;28;20223;-73
2021/05/17 06:25:54;;;;;;;1.23;1.10;;;11.80;99.90;;;;;;5028594;28;21017;-72
2021/05/17 06:28:21;;;;;;;2.30;1.20;;;11.80;99.90;;;;;;5017747;28;20468;-72
2021/05/17 06:30:51;;;;;;;1.20;1.10;;;11.90;99.90;;;;;;5048033;28;20973;-73
2021/05/17 06:33:19;;;;;;;1.37;1.27;;;11.90;99.90;;;;;;5051862;28;20455;-73
2021/05/17 06:35:46;;;;;;;1.37;1.27;;;11.90;99.90;;;;;;5064262;28;20450;-72
2021/05/17 06:38:13;;;;;;;2.30;1.30;;;11.90;99.90;;;;;;5036942;28;20820;-72
2021/05/17 06:40:39;;;;;;;1.10;1.00;;;12.00;99.90;;;;;;5052540;28;20477;-73
2021/05/17 06:43:05;;;;;;;2.40;1.83;;;12.00;99.90;;;;;;5016876;28;20478;-72
2021/05/17 06:45:32;;;;;;;1.37;1.27;;;12.10;99.90;;;;;;5027796;28;20235;-71
2021/05/17 06:47:58;;;;;;;2.50;1.40;;;12.10;99.90;;;;;;5012562;28;20580;-71
2021/05/17 06:50:24;;;;;;;1.33;1.27;;;12.20;99.90;;;;;;5014414;28;20522;-72
2021/05/17 06:52:51;;;;;;;1.40;1.30;;;12.20;99.90;;;;;;5028210;28;20697;-72
2021/05/17 06:55:20;;;;;;;2.27;1.40;;;12.30;99.90;;;;;;5036568;28;20595;-70
2021/05/17 06:58:00;;;;;;;1.67;1.57;;;12.30;99.90;;;;;;5030619;28;20453;-70
2021/05/17 07:00:31;;;;;;;1.90;1.40;;;12.40;99.90;;;;;;5029428;28;20449;-71
2021/05/17 07:02:59;;;;;;;1.20;1.10;;;12.40;99.90;;;;;;5039592;28;20430;-70
2021/05/17 07:05:26;;;;;;;4.90;1.70;;;12.40;99.90;;;;;;5035046;28;20959;-72
2021/05/17 07:13:13;;;;;;;1.23;1.10;;;12.60;99.90;;;;;;5037988;28;20536;-74
2021/05/17 07:15:39;;;;;;;2.97;1.20;;;12.60;99.90;;;;;;5084637;28;20499;-71
2021/05/17 07:18:05;;;;;;;2.07;1.63;;;12.70;99.90;;;;;;5049535;28;20940;-71
2021/05/17 07:25:59;;;;;;;2.50;1.83;;;12.90;99.90;;;;;;5028535;28;20443;-71
2021/05/17 07:28:25;;;;;;;1.47;1.37;;;13.00;99.90;;;;;;5050166;28;20533;-72
2021/05/17 07:30:51;;;;;;;1.60;1.50;;;13.00;99.90;;;;;;5032199;28;20447;-71
2021/05/17 07:33:17;;;;;;;3.40;1.30;;;13.00;99.90;;;;;;5025546;28;20988;-71
2021/05/17 07:35:43;;;;;;;1.80;1.30;;;13.00;99.90;;;;;;5052267;28;20307;-71
2021/05/17 07:38:09;;;;;;;1.13;1.03;;;13.00;99.90;;;;;;5034154;28;20459;-72
2021/05/17 07:40:36;;;;;;;3.43;1.30;;;13.00;99.90;;;;;;5026590;28;20456;-72
2021/05/17 07:43:02;;;;;;;0.93;0.93;;;13.00;99.90;;;;;;5035217;28;20214;-71
2021/05/17 07:45:28;;;;;;;1.07;0.90;;;13.10;99.90;;;;;;5048114;28;20523;-71
2021/05/17 07:47:54;;;;;;;1.47;0.90;;;13.10;99.90;;;;;;5005071;28;20504;-71
2021/05/17 07:50:25;;;;;;;0.80;0.80;;;13.10;99.90;;;;;;5051938;28;20250;-71
2021/05/17 07:52:51;;;;;;;1.43;0.80;;;13.20;99.90;;;;;;5018746;28;20469;-71
2021/05/17 07:55:21;;;;;;;1.17;0.97;;;13.20;99.90;;;;;;5040601;28;20441;-70
2021/05/17 07:57:46;;;;;;;1.70;1.30;;;13.20;99.90;;;;;;5052371;28;20264;-71
2021/05/17 08:00:13;;;;;;;3.00;1.20;;;13.30;99.90;;;;;;5033988;28;20850;-71
2021/05/17 08:02:39;;;;;;;1.53;0.90;;;13.20;99.90;;;;;;5051364;28;20239;-71
2021/05/17 08:05:05;;;;;;;3.83;1.10;;;13.20;99.90;;;;;;4999334;28;20501;-70
2021/05/17 08:07:32;;;;;;;0.70;0.70;;;13.30;99.90;;;;;;5032331;28;20494;-70
2021/05/17 08:09:58;;;;;;;12.60;7.23;;;13.30;99.90;;;;;;5031296;28;20473;-70
2021/05/17 08:12:23;;;;;;;21.97;12.03;;;13.30;99.90;;;;;;5009469;28;20449;-71
2021/05/17 08:14:49;;;;;;;4.60;3.87;;;13.40;99.90;;;;;;5035333;28;20277;-70
2021/05/17 08:17:15;;;;;;;2.10;1.87;;;13.40;99.90;;;;;;5018003;28;20214;-71
2021/05/17 08:19:41;;;;;;;0.93;0.93;;;13.40;99.90;;;;;;5017843;28;20623;-71
2021/05/17 08:22:07;;;;;;;2.17;1.47;;;13.40;99.90;;;;;;5031986;28;20295;-71
2021/05/17 08:24:32;;;;;;;1.73;1.63;;;13.40;99.90;;;;;;5038188;28;20549;-71
2021/05/17 08:26:59;;;;;;;1.10;1.00;;;13.50;99.90;;;;;;5053250;28;20219;-70
2021/05/17 08:29:33;;;;;;;2.00;1.50;;;13.50;99.90;;;;;;5054826;28;20216;-71
2021/05/17 08:32:01;;;;;;;1.20;1.20;;;13.50;99.90;;;;;;5038422;28;20508;-70
2021/05/17 08:34:27;;;;;;;3.23;1.20;;;13.50;99.90;;;;;;5051309;28;20446;-72
2021/05/17 08:36:54;;;;;;;1.53;1.43;;;13.50;99.90;;;;;;5046826;28;20458;-71
2021/05/17 08:39:20;;;;;;;1.53;1.30;;;13.50;99.90;;;;;;5060602;28;20250;-71
2021/05/17 08:41:45;;;;;;;3.00;1.07;;;13.50;99.90;;;;;;5044383;28;20531;-72
2021/05/17 08:44:12;;;;;;;1.83;1.50;;;13.40;99.90;;;;;;5020271;28;20230;-71
2021/05/17 08:46:37;;;;;;;1.37;1.10;;;13.40;99.90;;;;;;5077819;28;20223;-71
2021/05/17 08:49:03;;;;;;;0.90;0.90;;;13.40;99.90;;;;;;5042172;28;20462;-72
2021/05/17 08:51:33;;;;;;;0.90;0.80;;;13.40;99.90;;;;;;5027590;28;20226;-71
2021/05/17 08:54:02;;;;;;;0.83;0.83;;;13.50;99.90;;;;;;5053515;28;20220;-71
2021/05/17 08:56:29;;;;;;;0.90;0.80;;;13.50;99.90;;;;;;5039107;28;20454;-71
2021/05/17 08:58:59;;;;;;;1.10;1.10;;;13.50;99.90;;;;;;5051630;28;20451;-71
2021/05/17 09:01:26;;;;;;;1.00;1.00;;;13.50;99.90;;;;;;5051325;28;20830;-70
2021/05/17 09:04:06;;;;;;;0.87;0.87;;;13.60;99.90;;;;;;5035205;28;20485;-70
2021/05/17 09:06:53;;;;;;;1.37;0.87;;;13.60;99.90;;;;;;5035655;28;20450;-70
2021/05/17 09:09:24;;;;;;;1.20;1.10;;;13.60;99.90;;;;;;5058439;28;20457;-71
2021/05/17 09:11:53;;;;;;;1.20;1.10;;;13.60;99.90;;;;;;5037308;28;20988;-70
2021/05/17 09:14:19;;;;;;;1.53;1.27;;;13.60;99.90;;;;;;5046427;28;20445;-71
2021/05/17 09:16:58;;;;;;;3.30;1.10;;;13.70;99.90;;;;;;5078425;28;20468;-71
2021/05/17 09:19:24;;;;;;;1.40;1.30;;;13.80;99.90;;;;;;5052121;28;20460;-71
2021/05/17 09:22:21;;;;;;;1.20;1.20;;;14.00;99.90;;;;;;5052848;28;20453;-71
2021/05/17 09:24:52;;;;;;;1.10;0.97;;;14.10;99.90;;;;;;5064132;28;20849;-70
2021/05/17 09:27:27;;;;;;;3.50;1.23;;;14.30;99.90;;;;;;5042937;28;20486;-71
2021/05/17 09:29:57;;;;;;;2.03;1.90;;;14.40;99.90;;;;;;5051175;28;20455;-70
2021/05/17 09:32:28;;;;;;;1.10;1.00;;;14.30;99.90;;;;;;5050884;28;20537;-71
2021/05/17 09:35:05;;;;;;;1.20;1.00;;;14.30;99.90;;;;;;5025355;28;20465;-70
2021/05/17 09:37:58;;;;;;;2.10;1.20;;;14.20;99.90;;;;;;5070735;28;20464;-71
2021/05/17 09:40:25;;;;;;;2.23;1.00;;;14.20;99.90;;;;;;5082092;28;20797;-71
2021/05/17 09:43:02;;;;;;;1.03;0.97;;;14.20;99.90;;;;;;5065409;28;20449;-71
2021/05/17 09:45:36;;;;;;;1.33;0.80;;;14.30;99.90;;;;;;5035317;28;20460;-71
2021/05/17 09:48:08;;;;;;;0.93;0.93;;;14.40;99.90;;;;;;5060168;28;20449;-70
2021/05/17 09:51:04;;;;;;;0.93;0.93;;;14.40;99.90;;;;;;5032115;28;20544;-72
2021/05/17 09:53:45;;;;;;;1.00;1.00;;;14.50;99.90;;;;;;5054032;28;20448;-70
2021/05/17 09:56:13;;;;;;;0.93;0.93;;;14.60;99.90;;;;;;5061347;28;20452;-71
2021/05/17 09:58:47;;;;;;;0.90;0.90;;;14.70;99.90;;;;;;5067216;28;20444;-70
2021/05/17 10:01:27;;;;;;;1.53;1.00;;;14.70;99.90;;;;;;5064035;28;20544;-71
2021/05/17 10:03:54;;;;;;;1.10;0.77;;;14.70;99.90;;;;;;5053701;28;20469;-71
2021/05/17 10:06:25;;;;;;;2.47;1.23;;;14.80;99.90;;;;;;5053603;28;20418;-71
2021/05/17 10:08:53;;;;;;;1.10;1.00;;;14.90;99.90;;;;;;5035351;28;20469;-71
2021/05/17 10:11:20;;;;;;;1.20;1.10;;;15.00;99.90;;;;;;5065935;28;20451;-71
2021/05/17 10:13:47;;;;;;;0.80;0.80;;;15.20;99.90;;;;;;5061787;28;20528;-71
2021/05/17 10:16:15;;;;;;;3.50;1.00;;;15.30;99.90;;;;;;5053065;28;20461;-71
2021/05/17 10:18:42;;;;;;;1.53;0.83;;;15.30;99.90;;;;;;5070508;28;20968;-71
2021/05/17 10:21:10;;;;;;;2.20;1.17;;;15.40;99.90;;;;;;5053168;28;20540;-71
2021/05/17 10:23:39;;;;;;;1.77;1.00;;;15.50;99.90;;;;;;5053583;28;20462;-70
2021/05/17 10:26:15;;;;;;;1.17;1.00;;;15.60;99.90;;;;;;5052280;28;20446;-72
2021/05/17 10:28:54;;;;;;;1.07;0.80;;;15.80;99.90;;;;;;5041393;28;21019;-71
2021/05/17 10:31:21;;;;;;;1.00;1.00;;;16.00;99.90;;;;;;5068507;28;20461;-71
2021/05/17 10:33:59;;;;;;;0.90;0.67;;;16.10;99.90;;;;;;5061606;28;20445;-71
2021/05/17 10:36:50;;;;;;;0.77;0.77;;;16.10;99.90;;;;;;5072527;28;20455;-71
2021/05/17 10:39:18;;;;;;;0.97;0.70;;;16.10;99.90;;;;;;5072974;28;20968;-71
2021/05/17 10:42:17;;;;;;;0.63;0.63;;;16.00;99.90;;;;;;5045544;28;20455;-71
2021/05/17 10:47:45;;;;;;;1.33;0.60;;;16.00;99.90;;;;;;5041517;28;20472;-71
2021/05/17 10:50:21;;;;;;;0.80;0.80;;;16.00;99.90;;;;;;5052713;28;20965;-71
2021/05/17 10:52:47;;;;;;;1.30;1.20;;;16.10;99.90;;;;;;5034225;28;20470;-71
2021/05/17 10:55:15;;;;;;;1.00;0.80;;;16.10;99.90;;;;;;5054128;28;20456;-72
2021/05/17 10:58:07;;;;;;;0.90;0.90;;;16.10;99.90;;;;;;5056363;28;20225;-71
2021/05/17 11:00:35;;;;;;;0.63;0.63;;;16.10;99.90;;;;;;5061293;28;20499;-71
2021/05/17 11:03:16;;;;;;;0.80;0.67;;;16.10;99.90;;;;;;5052462;28;20441;-71
2021/05/17 11:05:45;;;;;;;1.13;0.97;;;16.00;99.90;;;;;;5036648;28;20449;-71
2021/05/17 11:08:14;;;;;;;1.27;1.00;;;16.00;99.90;;;;;;5060294;28;20440;-71
2021/05/17 11:10:45;;;;;;;1.23;0.77;;;15.90;99.90;;;;;;5082711;28;20502;-71
2021/05/17 11:13:34;;;;;;;1.00;0.80;;;15.70;99.90;;;;;;5068899;28;20471;-71
2021/05/17 11:16:04;;;;;;;1.17;0.50;;;15.60;99.90;;;;;;5086130;28;20440;-71
2021/05/17 11:18:32;;;;;;;1.37;0.70;;;15.60;99.90;;;;;;5067455;28;20862;-71
2021/05/17 11:21:09;;;;;;;0.63;0.60;;;15.60;99.90;;;;;;5102649;28;20449;-70
2021/05/17 11:23:37;;;;;;;0.60;0.50;;;15.60;99.90;;;;;;5055814;28;20473;-71
2021/05/17 11:26:07;;;;;;;1.00;0.80;;;15.60;99.90;;;;;;5047112;28;20450;-71
2021/05/17 11:28:42;;;;;;;0.70;0.70;;;15.80;99.90;;;;;;5072808;28;20441;-71
2021/05/17 11:31:57;;;;;;;0.80;0.80;;;15.90;99.90;;;;;;5051873;28;20448;-71
2021/05/17 11:34:26;;;;;;;1.23;0.97;;;16.00;99.90;;;;;;5060658;28;20437;-70
2021/05/17 11:37:12;;;;;;;1.30;0.60;;;16.00;99.90;;;;;;5036443;28;20901;-71
2021/05/17 11:39:40;;;;;;;0.70;0.70;;;16.10;99.90;;;;;;5035355;28;20449;-71
2021/05/17 11:42:12;;;;;;;0.67;0.63;;;16.20;99.90;;;;;;5068473;28;20523;-70
2021/05/17 11:45:09;;;;;;;0.40;0.40;;;16.30;99.90;;;;;;5036143;28;20534;-72
2021/05/17 11:47:35;;;;;;;0.53;0.53;;;16.30;99.90;;;;;;5053700;28;20453;-71
2021/05/17 11:50:02;;;;;;;0.53;0.53;;;16.40;99.90;;;;;;5067784;28;20544;-71
2021/05/17 11:52:30;;;;;;;0.50;0.50;;;16.50;99.90;;;;;;5085261;28;20241;-71
2021/05/17 11:54:58;;;;;;;0.97;0.60;;;16.60;99.90;;;;;;5070178;28;20469;-71
2021/05/17 11:57:35;;;;;;;0.70;0.70;;;16.50;99.90;;;;;;5068351;28;20437;-70
2021/05/17 12:00:11;;;;;;;1.30;0.70;;;16.40;99.90;;;;;;5053213;28;20972;-71
2021/05/17 12:02:46;;;;;;;0.60;0.50;;;16.30;99.90;;;;;;5035608;28;20464;-71
2021/05/17 12:05:12;;;;;;;1.50;0.40;;;16.10;99.90;;;;;;5067733;28;20883;-71
2021/05/17 12:07:49;;;;;;;0.60;0.60;;;16.10;99.90;;;;;;5053030;28;21010;-71
2021/05/17 12:10:16;;;;;;;0.90;0.60;;;16.00;99.90;;;;;;5059092;28;20460;-72
2021/05/17 12:12:52;;;;;;;0.57;0.50;;;16.10;99.90;;;;;;5093882;28;20502;-70
2021/05/17 12:15:20;;;;;;;0.70;0.67;;;16.10;99.90;;;;;;5053786;28;20544;-71
2021/05/17 12:17:45;;;;;;;0.73;0.43;;;16.20;99.90;;;;;;5079975;28;20480;-71
2021/05/17 12:20:13;;;;;;;1.23;0.77;;;16.20;99.90;;;;;;5042363;28;20557;-71
2021/05/17 12:22:49;;;;;;;0.80;0.60;;;16.20;99.90;;;;;;5045844;28;20687;-71
2021/05/17 12:25:18;;;;;;;0.80;0.80;;;16.30;99.90;;;;;;5040213;28;20989;-71
2021/05/17 12:27:46;;;;;;;0.50;0.50;;;16.30;99.90;;;;;;5039304;28;20457;-71
2021/05/17 12:30:23;;;;;;;1.20;0.87;;;16.40;99.90;;;;;;5038407;28;20850;-72
2021/05/17 12:32:56;;;;;;;0.93;0.50;;;16.50;99.90;;;;;;5055315;28;20457;-70
2021/05/17 12:35:31;;;;;;;1.53;0.60;;;16.50;99.90;;;;;;5080184;28;20449;-71
2021/05/17 12:38:04;;;;;;;0.70;0.70;;;16.50;99.90;;;;;;5063671;28;20452;-71
2021/05/17 12:40:40;;;;;;;0.80;0.70;;;16.50;99.90;;;;;;5052854;28;20500;-72
2021/05/17 12:43:16;;;;;;;0.70;0.70;;;16.50;99.90;;;;;;5051649;28;20454;-72
2021/05/17 12:45:47;;;;;;;1.43;0.50;;;16.50;99.90;;;;;;5063732;28;20455;-71
2021/05/17 12:48:43;;;;;;;0.87;0.50;;;16.50;99.90;;;;;;5072903;28;20447;-70
2021/05/17 12:51:14;;;;;;;3.60;0.57;;;16.40;99.90;;;;;;5069185;28;20521;-71
2021/05/17 12:53:40;;;;;;;0.90;0.60;;;16.50;99.90;;;;;;5054377;28;20534;-71
2021/05/17 12:56:05;;;;;;;1.27;0.63;;;16.60;99.90;;;;;;5021365;28;20441;-71
2021/05/17 12:58:40;;;;;;;3.00;0.70;;;16.60;99.90;;;;;;5038258;28;20242;-71
2021/05/17 13:01:13;;;;;;;0.50;0.47;;;16.50;99.90;;;;;;5063376;28;20215;-71
2021/05/17 13:03:46;;;;;;;0.50;0.50;;;16.50;99.90;;;;;;5057940;28;20468;-71
2021/05/17 13:06:26;;;;;;;0.50;0.40;;;16.60;99.90;;;;;;5074793;28;21009;-70
2021/05/17 13:09:02;;;;;;;0.70;0.70;;;16.60;99.90;;;;;;5055389;28;20453;-71
2021/05/17 13:11:41;;;;;;;0.90;0.60;;;16.50;99.90;;;;;;5063199;28;20501;-72
2021/05/17 13:14:31;;;;;;;0.77;0.40;;;16.40;99.90;;;;;;5092441;28;20539;-71
2021/05/17 13:17:03;;;;;;;0.70;0.50;;;16.40;99.90;;;;;;5057696;28;20506;-71
2021/05/17 13:33:42;;;;;;;0.70;0.50;;;16.30;99.90;;;;;;5082719;28;20540;-71
2021/05/17 13:36:13;;;;;;;0.50;0.50;;;16.30;99.90;;;;;;5070424;28;20458;-71
2021/05/17 13:38:50;;;;;;;0.60;0.60;;;16.30;99.90;;;;;;5056965;28;20440;-70
2021/05/17 13:41:17;;;;;;;0.60;0.50;;;16.30;99.90;;;;;;5054672;28;20453;-71
2021/05/17 13:43:55;;;;;;;0.90;0.70;;;16.30;99.90;;;;;;5061414;28;20483;-71
2021/05/17 13:46:25;;;;;;;0.60;0.50;;;16.40;99.90;;;;;;5067927;28;20440;-71